Agnew, Nebraska
Current Conditions -  °F | °C
As of 5:54 PM on Sunday 23 Nov 2014 (Local Time) from KLNK Reporting Station
Clear Clear  
Wind Chill: 35°   Ceiling: Unl
Heat Index: 44°   Visibility: 10mi
Dew Point: 30°   Wind: 23mph
Humidity: 58%   Direction: 350°N
Pressure: 29.57"   Gusts: NA
Location:  40.9964°N, 96.8004°W
Report Text: KLNK 232354Z 35020KT 10SM CLR 07/M01 A2957 RMK AO2 PK WND 35028/2259 SLP015 60000 T00671011 10083 20056 53013
Loading
Personal Weather Stations






























Interactive Weather Map New forecast layout! Learn more

10-Day Weather Forecast

Advertisements
Track Severe Weather on mobile